createdAt,value
2024-04-03T00:00:17.047Z,742.00
2024-04-03T00:01:17.123Z,748.00
2024-04-03T00:02:19.023Z,747.00
2024-04-03T00:03:17.231Z,754.00
2024-04-03T00:04:17.258Z,752.00
2024-04-03T00:05:17.314Z,741.00
2024-04-03T00:06:17.338Z,752.00
2024-04-03T00:07:17.382Z,755.00
2024-04-03T00:08:17.423Z,753.00
2024-04-03T00:09:17.425Z,749.00
2024-04-03T00:10:17.506Z,746.00
2024-04-03T00:11:17.521Z,747.00
2024-04-03T00:12:17.633Z,744.00
2024-04-03T00:13:17.729Z,740.00
2024-04-03T00:14:17.814Z,752.00
2024-04-03T00:15:17.909Z,752.00
2024-04-03T00:16:18.006Z,746.00
2024-04-03T00:17:18.088Z,746.00
2024-04-03T00:18:18.162Z,752.00
2024-04-03T00:19:18.262Z,743.00
2024-04-03T00:20:18.354Z,746.00
2024-04-03T00:21:18.436Z,750.00
2024-04-03T00:22:18.527Z,743.00
2024-04-03T00:23:18.621Z,755.00
2024-04-03T00:24:18.713Z,744.00
2024-04-03T00:25:18.802Z,748.00
2024-04-03T00:26:18.874Z,749.00
2024-04-03T00:27:18.965Z,743.00
2024-04-03T00:28:19.016Z,745.00
2024-04-03T00:29:19.119Z,755.00
2024-04-03T00:30:19.216Z,754.00
2024-04-03T00:31:19.322Z,750.00
2024-04-03T00:32:19.394Z,755.00
2024-04-03T00:33:19.484Z,750.00
2024-04-03T00:34:19.567Z,759.00
2024-04-03T00:35:19.675Z,754.00
2024-04-03T00:36:19.751Z,756.00
2024-04-03T00:37:19.833Z,753.00
2024-04-03T00:38:19.930Z,757.00
2024-04-03T00:39:20.025Z,755.00
2024-04-03T00:40:20.115Z,753.00
2024-04-03T00:41:20.208Z,757.00
2024-04-03T00:42:20.293Z,759.00
2024-04-03T00:43:20.391Z,754.00
2024-04-03T00:44:20.493Z,753.00
2024-04-03T00:45:20.595Z,751.00
2024-04-03T00:46:20.659Z,755.00
2024-04-03T00:47:20.766Z,755.00
2024-04-03T00:48:20.866Z,754.00
2024-04-03T00:49:20.933Z,753.00
2024-04-03T00:50:21.112Z,761.00
2024-04-03T00:51:21.154Z,748.00
2024-04-03T00:52:21.245Z,755.00
2024-04-03T00:53:21.300Z,751.00
2024-04-03T00:54:21.406Z,756.00
2024-04-03T00:55:21.477Z,766.00
2024-04-03T00:56:21.567Z,758.00
2024-04-03T00:57:21.675Z,750.00
2024-04-03T00:58:21.764Z,755.00
2024-04-03T00:59:21.847Z,761.00
2024-04-03T01:00:21.935Z,751.00
2024-04-03T01:01:22.038Z,755.00
2024-04-03T01:02:22.096Z,758.00
2024-04-03T01:03:22.207Z,758.00
2024-04-03T01:04:22.296Z,757.00
2024-04-03T01:05:22.365Z,751.00
2024-04-03T01:06:22.483Z,758.00
2024-04-03T01:07:22.586Z,761.00
2024-04-03T01:08:22.669Z,753.00
2024-04-03T01:09:22.754Z,753.00
2024-04-03T01:10:22.839Z,760.00
2024-04-03T01:11:22.923Z,758.00
2024-04-03T01:12:22.996Z,749.00
2024-04-03T01:13:23.142Z,755.00
2024-04-03T01:14:23.194Z,761.00
2024-04-03T01:15:23.297Z,755.00
2024-04-03T01:16:23.362Z,756.00
2024-04-03T01:17:23.479Z,749.00
2024-04-03T01:18:23.558Z,755.00
2024-04-03T01:19:23.662Z,756.00
2024-04-03T01:20:23.767Z,755.00
2024-04-03T01:21:23.856Z,754.00
2024-04-03T01:22:23.930Z,765.00
2024-04-03T01:23:24.033Z,758.00
2024-04-03T01:24:24.133Z,760.00
2024-04-03T01:25:29.640Z,755.00
2024-04-03T01:26:25.231Z,756.00
2024-04-03T01:27:24.195Z,757.00
2024-04-03T01:28:24.234Z,759.00
2024-04-03T01:29:24.212Z,762.00
2024-04-03T01:30:24.213Z,755.00
2024-04-03T01:31:24.205Z,759.00
2024-04-03T01:32:24.248Z,755.00
2024-04-03T01:33:24.277Z,754.00
2024-04-03T01:34:24.290Z,760.00
2024-04-03T01:35:24.272Z,760.00
2024-04-03T01:36:24.269Z,760.00
2024-04-03T01:37:24.275Z,764.00
2024-04-03T01:38:24.277Z,758.00
2024-04-03T01:39:24.349Z,758.00
2024-04-03T01:40:24.435Z,779.00
2024-04-03T01:41:24.498Z,765.00
2024-04-03T01:42:24.620Z,760.00
2024-04-03T01:43:24.687Z,773.00
2024-04-03T01:44:24.787Z,766.00
2024-04-03T01:45:24.858Z,767.00
2024-04-03T01:46:24.934Z,771.00
2024-04-03T01:47:25.027Z,782.00
2024-04-03T01:48:25.132Z,785.00
2024-04-03T01:49:25.232Z,781.00
2024-04-03T01:50:25.315Z,779.00
2024-04-03T01:51:25.376Z,782.00
2024-04-03T01:52:25.507Z,784.00
2024-04-03T01:53:25.610Z,784.00
2024-04-03T01:54:25.682Z,781.00
2024-04-03T01:55:25.788Z,778.00
2024-04-03T01:56:25.876Z,797.00
2024-04-03T01:57:25.960Z,784.00
2024-04-03T01:58:26.041Z,787.00
2024-04-03T01:59:26.159Z,784.00
2024-04-03T02:00:26.243Z,787.00
2024-04-03T02:01:26.305Z,793.00
2024-04-03T02:02:26.395Z,791.00
2024-04-03T02:03:26.487Z,788.00
2024-04-03T02:04:26.582Z,792.00
2024-04-03T02:05:26.675Z,784.00
2024-04-03T02:06:26.760Z,791.00
2024-04-03T02:07:26.901Z,791.00
2024-04-03T02:08:26.954Z,792.00
2024-04-03T02:09:27.039Z,782.00
2024-04-03T02:10:27.153Z,785.00
2024-04-03T02:11:27.231Z,791.00
2024-04-03T02:12:27.335Z,782.00
2024-04-03T02:13:27.435Z,788.00
2024-04-03T02:14:27.502Z,794.00
2024-04-03T02:15:27.640Z,777.00
2024-04-03T02:16:27.719Z,771.00
2024-04-03T02:17:27.855Z,791.00
2024-04-03T02:18:27.944Z,779.00
2024-04-03T02:19:27.990Z,777.00
2024-04-03T02:20:28.088Z,780.00
2024-04-03T02:21:28.192Z,778.00
2024-04-03T02:22:28.257Z,787.00
2024-04-03T02:23:36.129Z,781.00
2024-04-03T02:24:29.389Z,781.00
2024-04-03T02:25:28.428Z,775.00
2024-04-03T02:26:28.408Z,783.00
2024-04-03T02:27:28.400Z,786.00
2024-04-03T02:28:28.421Z,776.00
2024-04-03T02:29:28.382Z,775.00
2024-04-03T02:30:28.429Z,767.00
2024-04-03T02:31:28.392Z,783.00
2024-04-03T02:32:28.672Z,779.00
2024-04-03T02:33:28.379Z,779.00
2024-04-03T02:34:28.460Z,778.00
2024-04-03T02:35:28.382Z,772.00
2024-04-03T02:36:29.337Z,781.00
2024-04-03T02:37:28.415Z,778.00
2024-04-03T02:38:28.438Z,779.00
2024-04-03T02:39:28.458Z,775.00
2024-04-03T02:40:28.605Z,770.00
2024-04-03T02:41:28.698Z,779.00
2024-04-03T02:42:28.656Z,775.00
2024-04-03T02:43:28.658Z,795.00
2024-04-03T02:44:28.706Z,777.00
2024-04-03T02:45:28.861Z,779.00
2024-04-03T02:46:28.903Z,783.00
2024-04-03T02:47:29.024Z,792.00
2024-04-03T02:48:29.098Z,780.00
2024-04-03T02:49:29.192Z,784.00
2024-04-03T02:50:29.282Z,790.00
2024-04-03T02:51:29.455Z,783.00
2024-04-03T02:52:29.479Z,785.00
2024-04-03T02:53:29.588Z,785.00
2024-04-03T02:54:29.675Z,784.00
2024-04-03T02:55:29.751Z,780.00
2024-04-03T02:56:29.854Z,787.00
2024-04-03T02:57:29.938Z,791.00
2024-04-03T02:58:30.041Z,793.00
2024-04-03T02:59:30.157Z,780.00
2024-04-03T03:00:30.205Z,780.00
2024-04-03T03:01:30.342Z,780.00
2024-04-03T03:02:30.391Z,770.00
2024-04-03T03:03:30.479Z,779.00
2024-04-03T03:04:30.592Z,771.00
2024-04-03T03:05:30.684Z,778.00
2024-04-03T03:06:30.792Z,770.00
2024-04-03T03:07:30.899Z,766.00
2024-04-03T03:08:30.969Z,779.00
2024-04-03T03:09:34.129Z,778.00
2024-04-03T03:10:31.062Z,769.00
2024-04-03T03:11:31.059Z,763.00
2024-04-03T03:12:31.085Z,774.00
2024-04-03T03:13:31.381Z,761.00
2024-04-03T03:14:31.104Z,759.00
2024-04-03T03:15:31.133Z,749.00
2024-04-03T03:16:31.130Z,766.00
2024-04-03T03:17:31.128Z,745.00
2024-04-03T03:18:31.140Z,757.00
2024-04-03T03:19:31.105Z,755.00
2024-04-03T03:20:31.135Z,748.00
2024-04-03T03:21:31.133Z,743.00
2024-04-03T03:22:31.118Z,750.00
2024-04-03T03:23:31.129Z,748.00
2024-04-03T03:24:31.116Z,749.00
2024-04-03T03:25:31.125Z,753.00
2024-04-03T03:26:31.127Z,745.00
2024-04-03T03:27:31.136Z,747.00
2024-04-03T03:28:31.141Z,746.00
2024-04-03T03:29:31.151Z,742.00
2024-04-03T03:30:31.145Z,739.00
2024-04-03T03:31:31.136Z,741.00
2024-04-03T03:32:31.143Z,731.00
2024-04-03T03:33:31.199Z,746.00
2024-04-03T03:34:31.161Z,730.00
2024-04-03T03:35:31.153Z,727.00
2024-04-03T03:36:31.165Z,726.00
2024-04-03T03:37:31.170Z,723.00
2024-04-03T03:38:31.164Z,721.00
2024-04-03T03:39:31.163Z,716.00
2024-04-03T03:40:31.163Z,726.00
2024-04-03T03:41:31.140Z,725.00
2024-04-03T03:42:31.178Z,723.00
2024-04-03T03:43:31.163Z,723.00
2024-04-03T03:44:31.167Z,726.00
2024-04-03T03:45:31.187Z,728.00
2024-04-03T03:46:31.373Z,737.00
2024-04-03T03:47:31.538Z,746.00
2024-04-03T03:48:31.440Z,754.00
2024-04-03T03:49:31.207Z,746.00
2024-04-03T03:50:31.218Z,751.00
2024-04-03T03:51:31.178Z,757.00
2024-04-03T03:52:31.191Z,764.00
2024-04-03T03:53:31.194Z,769.00
2024-04-03T03:54:31.206Z,774.00
2024-04-03T03:55:31.218Z,767.00
2024-04-03T03:56:36.029Z,776.00
2024-04-03T03:57:32.188Z,777.00
2024-04-03T03:58:31.224Z,777.00
2024-04-03T03:59:31.197Z,778.00
2024-04-03T04:00:31.197Z,780.00
2024-04-03T04:01:31.198Z,781.00
2024-04-03T04:02:31.203Z,785.00
2024-04-03T04:03:31.214Z,794.00
2024-04-03T04:04:31.191Z,790.00
2024-04-03T04:05:31.225Z,796.00
2024-04-03T04:06:31.196Z,789.00
2024-04-03T04:07:31.222Z,798.00
2024-04-03T04:08:31.328Z,811.00
2024-04-03T04:09:31.421Z,792.00
2024-04-03T04:10:31.541Z,802.00
2024-04-03T04:11:31.610Z,810.00
2024-04-03T04:12:31.712Z,805.00
2024-04-03T04:13:31.803Z,807.00
2024-04-03T04:14:31.897Z,811.00
2024-04-03T04:15:31.991Z,817.00
2024-04-03T04:16:32.084Z,806.00
2024-04-03T04:17:39.259Z,600.00
2024-04-03T04:18:39.244Z,600.00
2024-04-03T04:19:39.258Z,600.00
2024-04-03T04:20:39.273Z,600.00
2024-04-03T04:21:39.230Z,600.00
2024-04-03T04:22:39.258Z,604.00
2024-04-03T04:23:39.269Z,605.00
2024-04-03T04:24:39.245Z,605.00
2024-04-03T04:25:39.253Z,601.00
2024-04-03T04:26:39.258Z,606.00
2024-04-03T04:27:39.258Z,603.00
2024-04-03T04:28:39.283Z,602.00
2024-04-03T04:29:39.278Z,606.00
2024-04-03T04:30:39.270Z,604.00
2024-04-03T04:31:46.450Z,600.00
2024-04-03T04:32:46.413Z,600.00
2024-04-03T04:33:46.422Z,600.00
2024-04-03T04:34:46.428Z,600.00
2024-04-03T04:35:46.433Z,600.00
2024-04-03T04:37:20.355Z,600.00
2024-04-03T04:38:20.353Z,600.00
2024-04-03T04:39:20.346Z,600.00
2024-04-03T04:40:22.142Z,600.00
2024-04-03T04:41:20.342Z,600.00
2024-04-03T04:42:20.354Z,600.00
2024-04-03T04:43:20.359Z,604.00
2024-04-03T04:44:20.367Z,605.00
2024-04-03T04:45:20.360Z,601.00
2024-04-03T04:46:20.352Z,603.00
2024-04-03T04:47:20.390Z,600.00
2024-04-03T04:48:20.379Z,606.00
2024-04-03T04:49:20.358Z,607.00
2024-04-03T04:50:20.369Z,607.00
2024-04-03T04:51:20.425Z,605.00
2024-04-03T04:52:20.450Z,606.00
2024-04-03T04:53:20.496Z,605.00
2024-04-03T04:54:20.533Z,607.00
2024-04-03T04:55:20.541Z,611.00
2024-04-03T04:56:20.592Z,610.00
2024-04-03T04:57:20.615Z,604.00
2024-04-03T04:58:20.676Z,609.00
2024-04-03T04:59:20.759Z,608.00
2024-04-03T05:00:20.861Z,610.00
2024-04-03T05:01:43.411Z,610.00
2024-04-03T05:02:20.965Z,611.00
2024-04-03T05:03:20.919Z,612.00
2024-04-03T05:04:20.921Z,614.00
2024-04-03T05:05:20.937Z,616.00
2024-04-03T05:06:20.934Z,617.00
2024-04-03T05:07:20.931Z,616.00
2024-04-03T05:08:20.926Z,616.00
2024-04-03T05:09:20.915Z,615.00
2024-04-03T05:10:20.920Z,615.00
2024-04-03T05:11:20.926Z,613.00
2024-04-03T05:12:20.927Z,615.00
2024-04-03T05:13:20.934Z,617.00
2024-04-03T05:14:20.938Z,614.00
2024-04-03T05:15:20.947Z,615.00
2024-04-03T05:16:20.961Z,619.00
2024-04-03T05:17:20.950Z,614.00
2024-04-03T05:18:20.946Z,614.00
2024-04-03T05:19:20.981Z,617.00
2024-04-03T05:20:20.950Z,620.00
2024-04-03T05:21:20.961Z,623.00
2024-04-03T05:22:20.977Z,625.00
2024-04-03T05:23:20.952Z,625.00
2024-04-03T05:24:20.991Z,627.00
2024-04-03T05:25:20.952Z,633.00
2024-04-03T05:26:20.994Z,636.00
2024-04-03T05:27:20.975Z,642.00
2024-04-03T05:28:21.010Z,645.00
2024-04-03T05:29:21.016Z,651.00
2024-04-03T05:30:21.067Z,654.00
2024-04-03T05:31:21.110Z,654.00
2024-04-03T05:32:21.136Z,655.00
2024-04-03T05:33:21.181Z,661.00
2024-04-03T05:34:21.258Z,662.00
2024-04-03T05:35:21.466Z,658.00
2024-04-03T05:36:21.411Z,664.00
2024-04-03T05:37:21.529Z,680.00
2024-04-03T05:38:21.622Z,711.00
2024-04-03T05:39:21.724Z,736.00
2024-04-03T05:40:21.816Z,741.00
2024-04-03T05:41:21.949Z,766.00
2024-04-03T05:42:21.957Z,781.00
2024-04-03T05:43:22.047Z,801.00
2024-04-03T05:44:22.110Z,828.00
2024-04-03T05:45:22.186Z,873.00
2024-04-03T05:46:44.771Z,901.00
2024-04-03T05:47:22.290Z,903.00
2024-04-03T05:48:22.315Z,915.00
2024-04-03T05:49:22.400Z,946.00
2024-04-03T05:50:22.533Z,999.00
2024-04-03T05:51:22.305Z,1074.00
2024-04-03T05:52:22.345Z,1110.00
2024-04-03T05:53:22.279Z,1127.00
2024-04-03T05:54:22.983Z,1139.00
2024-04-03T05:55:22.299Z,1128.00
2024-04-03T05:56:22.294Z,1147.00
2024-04-03T05:57:22.325Z,1145.00
2024-04-03T05:58:22.308Z,1163.00
2024-04-03T05:59:22.321Z,1179.00
2024-04-03T06:00:22.540Z,1197.00
2024-04-03T06:01:22.300Z,1193.00
2024-04-03T06:02:22.303Z,1195.00
2024-04-03T06:03:22.275Z,1215.00
2024-04-03T06:04:22.302Z,1224.00
2024-04-03T06:05:22.347Z,1235.00
2024-04-03T06:06:22.363Z,1230.00
2024-04-03T06:07:22.304Z,1236.00
2024-04-03T06:08:22.311Z,1252.00
2024-04-03T06:09:22.320Z,1266.00
2024-04-03T06:10:22.571Z,1275.00
2024-04-03T06:11:22.366Z,1279.00
2024-04-03T06:12:23.026Z,1297.00
2024-04-03T06:13:22.557Z,1309.00
2024-04-03T06:14:22.655Z,1316.00
2024-04-03T06:15:22.737Z,1327.00
2024-04-03T06:16:22.802Z,1338.00
2024-04-03T06:17:22.918Z,1344.00
2024-04-03T06:18:22.999Z,1353.00
2024-04-03T06:19:23.093Z,1371.00
2024-04-03T06:20:23.179Z,1379.00
2024-04-03T06:21:23.258Z,1376.00
2024-04-03T06:22:23.306Z,1385.00
2024-04-03T06:23:23.843Z,1388.00
2024-04-03T06:24:23.502Z,1385.00
2024-04-03T06:25:23.586Z,1391.00
2024-04-03T06:26:23.648Z,1368.00
2024-04-03T06:27:24.646Z,1369.00
2024-04-03T06:28:23.638Z,1370.00
2024-04-03T06:29:24.556Z,1377.00
2024-04-03T06:30:26.365Z,1387.00
2024-04-03T06:31:23.685Z,1370.00
2024-04-03T06:32:23.662Z,1377.00
2024-04-03T06:33:23.682Z,1390.00
2024-04-03T06:34:23.679Z,1409.00
2024-04-03T06:35:24.092Z,1438.00
2024-04-03T06:36:23.682Z,1432.00
2024-04-03T06:37:23.691Z,1401.00
2024-04-03T06:38:23.688Z,1363.00
2024-04-03T06:39:23.706Z,1333.00
2024-04-03T06:40:24.055Z,1300.00
2024-04-03T06:41:23.669Z,1256.00
2024-04-03T06:42:23.656Z,1221.00
2024-04-03T06:43:23.698Z,1206.00
2024-04-03T06:44:23.688Z,1205.00
2024-04-03T06:45:24.057Z,1207.00
2024-04-03T06:46:23.670Z,1202.00
2024-04-03T06:47:23.708Z,1201.00
2024-04-03T06:48:23.723Z,1200.00
2024-04-03T06:49:24.495Z,1212.00
2024-04-03T06:50:24.100Z,1205.00
2024-04-03T06:51:23.703Z,1211.00
2024-04-03T06:52:25.684Z,1215.00
2024-04-03T06:53:23.742Z,1216.00
2024-04-03T06:54:23.706Z,1218.00
2024-04-03T06:55:24.068Z,1225.00
2024-04-03T06:56:23.719Z,1235.00
2024-04-03T06:57:23.725Z,1217.00
2024-04-03T06:58:24.712Z,1218.00
2024-04-03T06:59:25.514Z,1218.00
2024-04-03T07:00:24.584Z,1219.00
2024-04-03T07:01:23.752Z,1228.00
2024-04-03T07:02:23.755Z,1240.00
2024-04-03T07:03:23.713Z,1265.00
2024-04-03T07:04:23.739Z,1299.00
2024-04-03T07:05:24.089Z,1300.00
2024-04-03T07:06:23.718Z,1302.00
2024-04-03T07:07:23.776Z,1293.00
2024-04-03T07:08:24.721Z,1294.00
2024-04-03T07:09:23.715Z,1297.00
2024-04-03T07:10:24.106Z,1302.00
2024-04-03T07:11:23.759Z,1309.00
2024-04-03T07:12:23.782Z,1301.00
2024-04-03T07:13:23.748Z,1292.00
2024-04-03T07:14:23.757Z,1305.00
2024-04-03T07:15:25.980Z,1303.00
2024-04-03T07:16:23.734Z,1303.00
2024-04-03T07:17:23.752Z,1315.00
2024-04-03T07:18:23.784Z,1320.00
2024-04-03T07:19:23.879Z,1320.00
2024-04-03T07:20:23.986Z,1321.00
2024-04-03T07:21:26.846Z,1324.00
2024-04-03T07:22:24.577Z,1325.00
2024-04-03T07:23:24.022Z,1327.00
2024-04-03T07:24:24.487Z,1332.00
2024-04-03T07:25:24.002Z,1344.00
2024-04-03T07:26:24.017Z,1352.00
2024-04-03T07:27:24.032Z,1360.00
2024-04-03T07:28:24.047Z,1364.00
2024-04-03T07:29:24.026Z,1365.00
2024-04-03T07:30:24.046Z,1376.00
2024-04-03T07:31:24.059Z,1361.00
2024-04-03T07:32:24.077Z,1318.00
2024-04-03T07:33:24.068Z,1270.00
2024-04-03T07:34:24.065Z,1232.00
2024-04-03T07:35:24.053Z,1210.00
2024-04-03T07:36:24.043Z,1183.00
2024-04-03T07:37:25.046Z,1183.00
2024-04-03T07:38:24.037Z,1171.00
2024-04-03T07:39:24.066Z,1142.00
2024-04-03T07:40:24.117Z,1109.00
2024-04-03T07:41:24.132Z,1089.00
2024-04-03T07:42:24.051Z,1073.00
2024-04-03T07:43:24.060Z,1081.00
2024-04-03T07:44:25.581Z,1075.00
2024-04-03T07:45:24.092Z,1076.00
2024-04-03T07:46:24.043Z,1073.00
2024-04-03T07:47:24.098Z,1090.00
2024-04-03T07:48:24.072Z,1082.00
2024-04-03T07:49:24.060Z,1082.00
2024-04-03T07:50:24.104Z,1084.00
2024-04-03T07:51:24.050Z,1089.00
2024-04-03T07:52:24.078Z,1087.00
2024-04-03T07:53:24.099Z,1078.00
2024-04-03T07:54:24.060Z,1046.00
2024-04-03T07:55:24.082Z,1026.00
2024-04-03T07:56:24.584Z,1008.00
2024-04-03T07:57:24.095Z,978.00
2024-04-03T07:58:24.080Z,955.00
2024-04-03T07:59:24.084Z,943.00
2024-04-03T08:00:24.127Z,926.00
2024-04-03T08:01:24.090Z,901.00
2024-04-03T08:02:24.087Z,885.00
2024-04-03T08:03:32.672Z,872.00
2024-04-03T08:04:25.092Z,858.00
2024-04-03T08:05:24.084Z,835.00
2024-04-03T08:06:24.612Z,815.00
2024-04-03T08:07:24.090Z,799.00
2024-04-03T08:08:24.108Z,780.00
2024-04-03T08:09:24.097Z,770.00
2024-04-03T08:10:24.075Z,759.00
2024-04-03T08:11:24.121Z,748.00
2024-04-03T08:12:24.103Z,737.00
2024-04-03T08:13:24.104Z,716.00
2024-04-03T08:14:24.149Z,707.00
2024-04-03T08:15:24.358Z,700.00
2024-04-03T08:16:24.399Z,702.00
2024-04-03T08:17:24.501Z,692.00
2024-04-03T08:18:24.543Z,674.00
2024-04-03T08:19:24.646Z,683.00
2024-04-03T08:20:24.734Z,678.00
2024-04-03T08:21:25.198Z,665.00
2024-04-03T08:22:24.943Z,662.00
2024-04-03T08:23:25.087Z,661.00
2024-04-03T08:24:25.184Z,656.00
2024-04-03T08:25:25.243Z,645.00
2024-04-03T08:26:25.591Z,641.00
2024-04-03T08:27:25.425Z,629.00
2024-04-03T08:28:25.525Z,620.00
2024-04-03T08:29:25.591Z,610.00
2024-04-03T08:30:25.726Z,600.00
2024-04-03T08:31:26.095Z,607.00
2024-04-03T08:32:25.971Z,618.00
2024-04-03T08:33:29.750Z,624.00
2024-04-03T08:34:25.960Z,625.00
2024-04-03T08:35:25.951Z,629.00
2024-04-03T08:36:26.109Z,638.00
2024-04-03T08:37:25.955Z,655.00
2024-04-03T08:38:25.993Z,720.00
2024-04-03T08:39:26.040Z,744.00
2024-04-03T08:40:25.960Z,770.00
2024-04-03T08:41:26.138Z,801.00
2024-04-03T08:42:26.044Z,793.00
2024-04-03T08:43:25.975Z,816.00
2024-04-03T08:44:25.986Z,826.00
2024-04-03T08:45:26.044Z,823.00
2024-04-03T08:46:25.959Z,840.00
2024-04-03T08:47:26.210Z,837.00
2024-04-03T08:48:25.997Z,843.00
2024-04-03T08:49:25.963Z,836.00
2024-04-03T08:50:25.976Z,841.00
2024-04-03T08:51:26.004Z,830.00
2024-04-03T08:52:26.159Z,821.00
2024-04-03T08:53:25.984Z,808.00
2024-04-03T08:54:26.040Z,749.00
2024-04-03T08:55:26.019Z,662.00
2024-04-03T08:56:25.967Z,640.00
2024-04-03T08:57:26.182Z,630.00
2024-04-03T08:58:26.003Z,620.00
2024-04-03T08:59:25.993Z,613.00
2024-04-03T09:00:29.221Z,603.00
2024-04-03T09:01:27.022Z,600.00
2024-04-03T09:02:26.004Z,597.00
2024-04-03T09:03:26.068Z,593.00
2024-04-03T09:04:26.017Z,585.00
2024-04-03T09:05:26.021Z,577.00
2024-04-03T09:06:26.019Z,600.00
2024-04-03T09:07:26.027Z,608.00
2024-04-03T09:09:13.347Z,600.00
2024-04-03T09:10:13.290Z,600.00
2024-04-03T09:11:13.296Z,600.00
2024-04-03T09:12:13.311Z,600.00
2024-04-03T09:13:13.341Z,600.00
2024-04-03T09:14:13.310Z,606.00
2024-04-03T09:15:13.345Z,605.00
2024-04-03T09:16:13.303Z,606.00
2024-04-03T09:17:13.296Z,604.00
2024-04-03T09:18:13.345Z,604.00
2024-04-03T09:19:13.309Z,603.00
2024-04-03T09:20:13.302Z,601.00
2024-04-03T09:21:13.294Z,600.00
2024-04-03T09:22:13.346Z,600.00
2024-04-03T09:23:13.300Z,601.00
2024-04-03T09:24:13.377Z,602.00
2024-04-03T09:25:13.321Z,605.00
2024-04-03T09:26:13.340Z,600.00
2024-04-03T09:27:13.406Z,600.00
2024-04-03T09:28:13.359Z,602.00
2024-04-03T09:29:13.827Z,604.00
2024-04-03T09:30:13.788Z,605.00
2024-04-03T09:31:13.332Z,609.00
2024-04-03T09:32:13.917Z,610.00
2024-04-03T09:33:13.434Z,606.00
2024-04-03T09:34:13.352Z,603.00
2024-04-03T09:35:13.328Z,600.00
2024-04-03T09:36:13.327Z,599.00
2024-04-03T09:37:13.359Z,602.00
2024-04-03T09:38:13.347Z,603.00
2024-04-03T09:39:13.365Z,601.00
2024-04-03T09:40:13.332Z,604.00
2024-04-03T09:41:13.424Z,604.00
2024-04-03T09:42:13.925Z,605.00
2024-04-03T09:43:13.586Z,609.00
2024-04-03T09:44:15.024Z,614.00
2024-04-03T09:45:13.856Z,631.00
2024-04-03T09:46:13.874Z,646.00
2024-04-03T09:47:14.612Z,664.00
2024-04-03T09:48:14.042Z,666.00
2024-04-03T09:49:14.115Z,706.00
2024-04-03T09:50:14.206Z,742.00
2024-04-03T09:51:14.314Z,761.00
2024-04-03T09:52:14.360Z,797.00
2024-04-03T09:53:14.443Z,811.00
2024-04-03T09:54:14.516Z,817.00
2024-04-03T09:55:14.598Z,832.00
2024-04-03T09:56:14.660Z,856.00
2024-04-03T09:57:14.743Z,840.00
2024-04-03T09:58:14.806Z,827.00
2024-04-03T09:59:14.860Z,791.00
2024-04-03T10:00:14.942Z,781.00
2024-04-03T10:01:15.027Z,780.00
2024-04-03T10:02:15.122Z,787.00
2024-04-03T10:03:15.432Z,820.00
2024-04-03T10:04:15.271Z,825.00
2024-04-03T10:05:15.330Z,848.00
2024-04-03T10:06:15.426Z,867.00
2024-04-03T10:07:16.347Z,880.00
2024-04-03T10:08:15.945Z,906.00
2024-04-03T10:09:15.627Z,914.00
2024-04-03T10:10:15.677Z,926.00
2024-04-03T10:11:15.785Z,953.00
2024-04-03T10:12:15.798Z,951.00
2024-04-03T10:13:15.881Z,962.00
2024-04-03T10:14:15.992Z,991.00
2024-04-03T10:15:16.070Z,995.00
2024-04-03T10:16:16.113Z,1019.00
2024-04-03T10:17:16.180Z,1031.00
2024-04-03T10:18:16.285Z,1050.00
2024-04-03T10:19:16.363Z,1058.00
2024-04-03T10:20:16.454Z,1061.00
2024-04-03T10:21:16.556Z,1074.00
2024-04-03T10:22:16.638Z,1087.00
2024-04-03T10:23:16.927Z,1091.00
2024-04-03T10:24:16.774Z,1093.00
2024-04-03T10:25:16.885Z,1101.00
2024-04-03T10:26:17.005Z,1107.00
2024-04-03T10:27:17.097Z,1098.00
2024-04-03T10:28:17.471Z,1101.00
2024-04-03T10:29:17.290Z,1102.00
2024-04-03T10:30:17.346Z,1121.00
2024-04-03T10:31:17.444Z,1111.00
2024-04-03T10:32:17.530Z,1112.00
2024-04-03T10:33:17.999Z,1107.00
2024-04-03T10:34:17.698Z,1115.00
2024-04-03T10:35:17.772Z,1111.00
2024-04-03T10:36:17.861Z,1058.00
2024-04-03T10:37:17.952Z,957.00
2024-04-03T10:38:18.435Z,914.00
2024-04-03T10:39:18.095Z,913.00
2024-04-03T10:40:18.222Z,940.00
2024-04-03T10:41:18.297Z,960.00
2024-04-03T10:42:18.362Z,973.00
2024-04-03T10:43:18.454Z,1009.00
2024-04-03T10:44:18.524Z,968.00
2024-04-03T10:45:18.617Z,981.00
2024-04-03T10:46:18.741Z,935.00
2024-04-03T10:47:18.783Z,945.00
2024-04-03T10:48:18.947Z,931.00
2024-04-03T10:49:18.990Z,932.00
2024-04-03T10:50:19.037Z,907.00
2024-04-03T10:51:19.108Z,908.00
2024-04-03T10:52:19.234Z,885.00
2024-04-03T10:53:19.287Z,896.00
2024-04-03T10:54:19.364Z,870.00
2024-04-03T10:55:19.471Z,855.00
2024-04-03T10:56:19.527Z,822.00
2024-04-03T10:57:19.635Z,815.00
2024-04-03T10:58:19.984Z,794.00
2024-04-03T10:59:19.746Z,781.00
2024-04-03T11:00:19.868Z,747.00
2024-04-03T11:01:19.917Z,741.00
2024-04-03T11:02:20.032Z,722.00
2024-04-03T11:03:20.048Z,708.00
2024-04-03T11:04:20.194Z,680.00
2024-04-03T11:05:20.241Z,663.00
2024-04-03T11:06:20.351Z,661.00
2024-04-03T11:07:20.385Z,658.00
2024-04-03T11:08:20.414Z,650.00
2024-04-03T11:09:20.553Z,642.00
2024-04-03T11:10:20.590Z,635.00
2024-04-03T11:11:20.689Z,625.00
2024-04-03T11:12:20.737Z,621.00
2024-04-03T11:13:20.794Z,616.00
2024-04-03T11:14:20.868Z,611.00
2024-04-03T11:15:21.007Z,612.00
2024-04-03T11:16:21.039Z,609.00
2024-04-03T11:17:21.096Z,606.00
2024-04-03T11:18:21.184Z,600.00
2024-04-03T11:19:21.224Z,600.00
2024-04-03T11:20:21.284Z,601.00
2024-04-03T11:21:21.385Z,601.00
2024-04-03T11:22:21.449Z,607.00
2024-04-03T11:23:21.675Z,606.00
2024-04-03T11:24:21.607Z,600.00
2024-04-03T11:25:21.703Z,596.00
2024-04-03T11:26:21.758Z,584.00
2024-04-03T11:27:21.885Z,580.00
2024-04-03T11:28:21.986Z,583.00
2024-04-03T11:29:22.051Z,600.00
2024-04-03T11:30:22.253Z,605.00
2024-04-03T11:31:22.226Z,603.00
2024-04-03T11:32:22.278Z,609.00
2024-04-03T11:33:22.566Z,619.00
2024-04-03T11:34:22.471Z,627.00
2024-04-03T11:35:22.547Z,636.00
2024-04-03T11:36:22.653Z,648.00
2024-04-03T11:37:22.712Z,657.00
2024-04-03T11:38:22.979Z,668.00
2024-04-03T11:39:22.947Z,693.00
2024-04-03T11:40:22.956Z,720.00
2024-04-03T11:41:23.047Z,738.00
2024-04-03T11:42:23.103Z,766.00
2024-04-03T11:43:23.182Z,820.00
2024-04-03T11:44:23.257Z,853.00
2024-04-03T11:45:23.315Z,874.00
2024-04-03T11:46:23.384Z,878.00
2024-04-03T11:47:23.494Z,904.00
2024-04-03T11:48:23.575Z,943.00
2024-04-03T11:49:23.604Z,958.00
2024-04-03T11:50:23.733Z,961.00
2024-04-03T11:51:23.808Z,960.00
2024-04-03T11:52:23.837Z,989.00
2024-04-03T11:53:23.936Z,1010.00
2024-04-03T11:54:24.065Z,1040.00
2024-04-03T11:55:24.084Z,1036.00
2024-04-03T11:56:24.166Z,1042.00
2024-04-03T11:57:24.241Z,1049.00
2024-04-03T11:58:24.308Z,1062.00
2024-04-03T11:59:24.446Z,1080.00
2024-04-03T12:00:24.502Z,1085.00
2024-04-03T12:01:24.573Z,1095.00
2024-04-03T12:02:24.634Z,1117.00
2024-04-03T12:03:24.701Z,1122.00
2024-04-03T12:04:24.800Z,1115.00
2024-04-03T12:05:24.950Z,1092.00
2024-04-03T12:06:24.973Z,1097.00
2024-04-03T12:07:25.017Z,1095.00
2024-04-03T12:08:25.097Z,1083.00
2024-04-03T12:09:25.198Z,1115.00
2024-04-03T12:10:25.271Z,1118.00
2024-04-03T12:11:25.330Z,1126.00
2024-04-03T12:12:25.428Z,1111.00
2024-04-03T12:13:25.503Z,1117.00
2024-04-03T12:14:25.581Z,1118.00
2024-04-03T12:15:25.711Z,1143.00
2024-04-03T12:16:25.762Z,1141.00
2024-04-03T12:17:25.912Z,1139.00
2024-04-03T12:18:26.043Z,1148.00
2024-04-03T12:19:26.044Z,1145.00
2024-04-03T12:20:26.142Z,1157.00
2024-04-03T12:21:26.261Z,1149.00
2024-04-03T12:22:26.305Z,1139.00
2024-04-03T12:23:26.462Z,1127.00
2024-04-03T12:24:26.545Z,1133.00